Weather History for Bentonville, AR

Change the Weather History Date:

Monday, May 27, 2013

  Actual Average Record
Temperature  
Mean Temperature 76 °F -  
Max Temperature 84 °F 77 °F 89 °F (1962)
Min Temperature 68 °F 55 °F 36 °F (1961)
Cooling Degree Days 11    
Growing Degree Days 26 (Base 50)    
Moisture  
Dew Point 63 °F    
Average Humidity 68    
Maximum Humidity 83    
Minimum Humidity 51    
Precipitation  
Precipitation 0.00 in - - ()
Sea Level Pressure  
Sea Level Pressure 29.91 in    
Wind  
Wind Speed 10 mph (South)    
Max Wind Speed 22 mph    
Max Gust Speed 29 mph    
Visibility 10 miles    
Events      
Averages and records for this station are not official NWS values.
T = Trace of Precipitation, MM = Missing Value Source: NWS Daily Summary

Daily Weather History Graph

Daily Weather History Graph

Search for Another Location

Airport:

Trip Planner

Search our weather history database for the weather conditions in past years. The results will help you decide how hot, cold, wet, or windy it might be!

Date:

Astronomy

May. 27, 2013 Rise Set
Actual Time 6:02 AM CDT 8:26 PM CDT
Civil Twilight 5:32 AM CDT 8:55 PM CDT
Nautical Twilight 4:56 AM CDT 9:32 PM CDT
Astronomical Twilight 4:16 AM CDT 10:12 PM CDT
Moon 11:08 PM CDT (5/27) 8:39 AM CDT (5/27)
Length of Visible Light 15h 22m
Length of Day
14h 23m
Waning Gibbous, 91% of the Moon is Illuminated
May 27
Waning Gibbous
May 31
Last Quarter
Jun 8
New
Jun 16
First Quarter
Jun 23
Full

Hourly Weather History & Observations

Time (CDT) Temp. Heat Index Dew Point Humidity Pressure Visibility Wind Dir Wind Speed Gust Speed Precip Events Conditions
12:15 AM 68.0 °F - 57.2 °F 68% 30.01 in 10.0 mi South 5.8 mph - N/A   Clear
12:35 AM 68.0 °F - 57.2 °F 68% 30.01 in 10.0 mi South 5.8 mph - N/A   Clear
12:55 AM 69.8 °F - 57.2 °F 64% 30.00 in 10.0 mi South 9.2 mph - N/A   Clear
1:15 AM 69.8 °F - 59.0 °F 68% 29.99 in 10.0 mi South 5.8 mph - N/A   Clear
1:35 AM 69.8 °F - 60.8 °F 73% 29.99 in 10.0 mi South 5.8 mph - N/A   Mostly Cloudy
1:55 AM 69.8 °F - 60.8 °F 73% 29.98 in 10.0 mi South 6.9 mph - N/A   Overcast
2:15 AM 69.8 °F - 60.8 °F 73% 29.98 in 10.0 mi South 6.9 mph - N/A   Mostly Cloudy
2:35 AM 69.8 °F - 62.6 °F 78% 29.98 in 10.0 mi South 6.9 mph - N/A   Partly Cloudy
2:55 AM 69.8 °F - 62.6 °F 78% 29.98 in 10.0 mi South 6.9 mph - N/A   Clear
3:15 AM 68.0 °F - 62.6 °F 83% 29.98 in 10.0 mi South 8.1 mph - N/A   Clear
3:35 AM 68.0 °F - 62.6 °F 83% 29.97 in 10.0 mi SSE 8.1 mph - N/A   Clear
3:55 AM 68.0 °F - 62.6 °F 83% 29.97 in 10.0 mi SSE 9.2 mph - N/A   Clear
4:15 AM 68.0 °F - 62.6 °F 83% 29.96 in 10.0 mi SSE 10.4 mph - N/A   Clear
4:35 AM 68.0 °F - 62.6 °F 83% 29.96 in 10.0 mi South 10.4 mph - N/A   Clear
4:55 AM 69.8 °F - 62.6 °F 78% 29.96 in 10.0 mi SSE 9.2 mph - N/A   Clear
5:15 AM 69.8 °F - 62.6 °F 78% 29.96 in 10.0 mi SSE 6.9 mph - N/A   Clear
5:35 AM 69.8 °F - 64.4 °F 83% 29.96 in 10.0 mi SSE 6.9 mph - N/A   Clear
5:55 AM 69.8 °F - 64.4 °F 83% 29.95 in 10.0 mi South 8.1 mph - N/A   Clear
6:15 AM 69.8 °F - 64.4 °F 83% 29.95 in 10.0 mi South 8.1 mph - N/A   Clear
6:35 AM 69.8 °F - 64.4 °F 83% 29.96 in 10.0 mi SSE 8.1 mph - N/A   Scattered Clouds
6:55 AM 69.8 °F - 64.4 °F 83% 29.96 in 10.0 mi South 10.4 mph - N/A   Scattered Clouds
7:15 AM 69.8 °F - 64.4 °F 83% 29.96 in 10.0 mi South 8.1 mph - N/A   Clear
7:35 AM 71.6 °F - 64.4 °F 78% 29.95 in 10.0 mi South 9.2 mph - N/A   Mostly Cloudy
7:55 AM 71.6 °F - 64.4 °F 78% 29.95 in 10.0 mi South 12.7 mph 18.4 mph N/A   Overcast
8:15 AM 73.4 °F - 64.4 °F 73% 29.95 in 10.0 mi SSW 11.5 mph 21.9 mph N/A   Overcast
8:35 AM 73.4 °F - 66.2 °F 78% 29.96 in 10.0 mi South 12.7 mph 19.6 mph N/A   Mostly Cloudy
8:55 AM 75.2 °F - 66.2 °F 73% 29.96 in 10.0 mi SSW 15.0 mph 20.7 mph N/A   Overcast
9:15 AM 75.2 °F - 64.4 °F 69% 29.96 in 10.0 mi South 16.1 mph 23.0 mph N/A   Overcast
9:35 AM 75.2 °F - 66.2 °F 73% 29.95 in 10.0 mi South 17.3 mph 25.3 mph N/A   Overcast
9:55 AM 75.2 °F - 66.2 °F 73% 29.94 in 10.0 mi South 16.1 mph 21.9 mph N/A   Overcast
10:15 AM 75.2 °F - 66.2 °F 73% 29.94 in 10.0 mi South 18.4 mph 23.0 mph N/A   Overcast
10:35 AM 77.0 °F - 66.2 °F 69% 29.92 in 10.0 mi South 13.8 mph 26.5 mph N/A   Mostly Cloudy
10:55 AM 78.8 °F - 66.2 °F 65% 29.93 in 10.0 mi South 13.8 mph 23.0 mph N/A   Scattered Clouds
11:15 AM 78.8 °F - 66.2 °F 65% 29.93 in 10.0 mi South 18.4 mph 25.3 mph N/A   Mostly Cloudy
11:35 AM 78.8 °F - 66.2 °F 65% 29.94 in 10.0 mi SSW 17.3 mph 27.6 mph N/A   Scattered Clouds
11:55 AM 78.8 °F - 66.2 °F 65% 29.94 in 10.0 mi SSW 17.3 mph 23.0 mph N/A   Partly Cloudy
12:15 PM 78.8 °F - 66.2 °F 65% 29.95 in 10.0 mi SSW 12.7 mph 21.9 mph N/A   Partly Cloudy
12:35 PM 80.6 °F 82.7 °F 66.2 °F 61% 29.94 in 10.0 mi SSW 15.0 mph 20.7 mph N/A   Partly Cloudy
12:55 PM 80.6 °F 82.7 °F 66.2 °F 61% 29.94 in 10.0 mi South 12.7 mph 24.2 mph N/A   Partly Cloudy
1:15 PM 80.6 °F 82.3 °F 64.4 °F 58% 29.94 in 10.0 mi SSW 16.1 mph 26.5 mph N/A   Partly Cloudy
1:35 PM 82.4 °F 83.9 °F 64.4 °F 54% 29.93 in 10.0 mi South 11.5 mph 19.6 mph N/A   Partly Cloudy
1:55 PM 82.4 °F 83.9 °F 64.4 °F 54% 29.92 in 10.0 mi SSW 16.1 mph 24.2 mph N/A   Partly Cloudy
2:15 PM 82.4 °F 83.9 °F 64.4 °F 54% 29.91 in 10.0 mi South 18.4 mph 23.0 mph N/A   Clear
2:35 PM 82.4 °F 83.4 °F 62.6 °F 51% 29.90 in 10.0 mi South 16.1 mph 28.8 mph N/A   Clear
2:55 PM 82.4 °F 83.4 °F 62.6 °F 51% 29.89 in 10.0 mi South 15.0 mph 25.3 mph N/A   Clear
3:15 PM 82.4 °F 83.4 °F 62.6 °F 51% 29.88 in 10.0 mi SSW 21.9 mph 27.6 mph N/A   Clear
3:35 PM 82.4 °F 83.4 °F 62.6 °F 51% 29.87 in 10.0 mi SSW 17.3 mph 25.3 mph N/A   Clear
3:55 PM 84.2 °F 85.6 °F 64.4 °F 51% 29.87 in 10.0 mi South 19.6 mph 25.3 mph N/A   Clear
4:15 PM 82.4 °F 83.4 °F 62.6 °F 51% 29.87 in 10.0 mi South 18.4 mph 24.2 mph N/A   Clear
4:35 PM 82.4 °F 83.4 °F 62.6 °F 51% 29.85 in 10.0 mi South 10.4 mph 21.9 mph N/A   Clear
4:55 PM 82.4 °F 83.9 °F 64.4 °F 54% 29.86 in 10.0 mi South 16.1 mph 23.0 mph N/A   Clear
5:15 PM 80.6 °F 82.3 °F 64.4 °F 58% 29.85 in 10.0 mi South 16.1 mph - N/A   Scattered Clouds
5:35 PM 80.6 °F 82.3 °F 64.4 °F 58% 29.86 in 10.0 mi South 13.8 mph 21.9 mph N/A   Scattered Clouds
5:55 PM 78.8 °F - 64.4 °F 61% 29.86 in 10.0 mi South 12.7 mph 20.7 mph N/A   Mostly Cloudy
6:15 PM 78.8 °F - 64.4 °F 61% 29.85 in 10.0 mi South 12.7 mph 20.7 mph N/A   Overcast
6:35 PM 78.8 °F - 64.4 °F 61% 29.85 in 10.0 mi South 11.5 mph 19.6 mph N/A   Overcast
6:55 PM 78.8 °F - 62.6 °F 57% 29.86 in 10.0 mi South 9.2 mph 20.7 mph N/A   Overcast
7:15 PM 78.8 °F - 62.6 °F 57% 29.85 in 10.0 mi South 13.8 mph 23.0 mph N/A   Overcast
7:35 PM 78.8 °F - 64.4 °F 61% 29.83 in 10.0 mi South 12.7 mph 21.9 mph N/A   Mostly Cloudy
7:55 PM 77.0 °F - 62.6 °F 61% 29.83 in 10.0 mi South 17.3 mph 20.7 mph N/A   Clear
8:15 PM 75.2 °F - 62.6 °F 65% 29.83 in 10.0 mi South 12.7 mph 18.4 mph N/A   Clear
8:35 PM 75.2 °F - 62.6 °F 65% 29.83 in 10.0 mi South 11.5 mph 20.7 mph N/A   Clear
8:55 PM 75.2 °F - 62.6 °F 65% 29.83 in 10.0 mi South 9.2 mph 18.4 mph N/A   Clear
9:15 PM 75.2 °F - 62.6 °F 65% 29.83 in 10.0 mi South 11.5 mph 18.4 mph N/A   Clear
9:35 PM 75.2 °F - 62.6 °F 65% 29.84 in 10.0 mi South 11.5 mph 17.3 mph N/A   Clear
9:55 PM 73.4 °F - 62.6 °F 69% 29.85 in 10.0 mi South 11.5 mph - N/A   Clear
10:15 PM 73.4 °F - 62.6 °F 69% 29.86 in 10.0 mi South 10.4 mph 17.3 mph N/A   Clear
10:35 PM 73.4 °F - 62.6 °F 69% 29.85 in 10.0 mi South 12.7 mph 19.6 mph N/A   Clear
10:55 PM 73.4 °F - 62.6 °F 69% 29.84 in 10.0 mi South 12.7 mph 18.4 mph N/A   Clear
11:15 PM 73.4 °F - 62.6 °F 69% 29.83 in 10.0 mi South 13.8 mph 23.0 mph N/A   Clear
11:35 PM 73.4 °F - 62.6 °F 69% 29.84 in 10.0 mi South 12.7 mph 20.7 mph N/A   Clear
11:55 PM 73.4 °F - 62.6 °F 69% 29.84 in 10.0 mi South 12.7 mph 21.9 mph N/A   Clear